Time;durP1;ratioP1;P1;durP2;ratioP2;P2;SDS_P1;SDS_P2;PMS_P1;PMS_P2;Temp;Humidity;BMP_temperature;BMP_pressure;BME280_temperature;BME280_humidity;BME280_pressure;Samples;Min_cycle;Max_cycle;Signal;HPM_P1;HPM_P2
2023/10/29 00:00:49;;;;;;;32.40;11.20;;;;;;;17.98;54.63;98030.52;67909;1273;1018108;-68
2023/10/29 00:04:11;;;;;;;49.40;28.40;;;;;;;17.91;54.82;98030.71;67894;1273;1016654;-67
2023/10/29 00:07:13;;;;;;;43.00;13.90;;;;;;;17.91;54.84;98031.62;67844;1273;1016514;-67
2023/10/29 00:10:17;;;;;;;25.30;8.90;;;;;;;17.93;54.76;98033.94;67891;1273;1016393;-67
2023/10/29 00:13:19;;;;;;;28.90;9.40;;;;;;;17.99;54.55;98030.94;67933;1273;1016393;-67
2023/10/29 00:16:21;;;;;;;26.90;9.00;;;;;;;17.99;54.70;98027.92;67887;1273;1016406;-68
2023/10/29 00:19:24;;;;;;;28.60;9.10;;;;;;;18.12;54.40;98028.60;67858;1273;1016349;-67
2023/10/29 00:22:27;;;;;;;32.00;11.90;;;;;;;18.18;54.19;98027.13;67906;1273;1016402;-67
2023/10/29 00:25:29;;;;;;;26.10;9.30;;;;;;;18.17;54.16;98026.27;67913;1273;1016153;-68
2023/10/29 00:28:32;;;;;;;25.10;8.60;;;;;;;18.10;54.30;98022.11;67910;1273;1016016;-68
2023/10/29 00:31:34;;;;;;;29.10;9.80;;;;;;;18.04;54.39;98022.49;67905;1273;1016024;-68
2023/10/29 00:34:36;;;;;;;27.90;10.30;;;;;;;18.04;54.56;98023.90;67876;1273;1016461;-65
2023/10/29 00:37:39;;;;;;;27.20;9.50;;;;;;;18.11;54.14;98025.85;67867;1273;1015672;-68
2023/10/29 00:40:41;;;;;;;27.20;9.70;;;;;;;18.11;53.94;98024.82;67926;1273;1016478;-68
2023/10/29 00:43:43;;;;;;;26.90;9.30;;;;;;;18.11;53.85;98023.88;67927;1273;1016467;-68
2023/10/29 00:46:46;;;;;;;23.80;8.50;;;;;;;18.13;53.73;98024.98;67905;1273;1016113;-68
2023/10/29 00:49:48;;;;;;;24.80;8.30;;;;;;;18.12;53.63;98020.23;67885;1273;1016384;-68
2023/10/29 00:52:51;;;;;;;22.10;7.20;;;;;;;18.02;54.05;98024.71;67880;1273;1016232;-68
2023/10/29 00:55:53;;;;;;;26.70;8.90;;;;;;;17.93;53.96;98023.94;67917;1273;1016364;-68
2023/10/29 00:58:56;;;;;;;26.00;9.70;;;;;;;17.97;54.03;98022.74;67930;1273;1016792;-68
2023/10/29 01:01:58;;;;;;;;;;;;;;;17.99;53.82;98017.18;67879;1273;1016421;-68
2023/10/29 01:05:00;;;;;;;26.50;8.00;;;;;;;18.03;53.42;98020.02;67879;1273;1016369;-67
2023/10/29 01:08:05;;;;;;;25.60;7.50;;;;;;;17.95;53.66;98024.63;67906;1273;1016519;-68
2023/10/29 01:11:07;;;;;;;25.40;8.00;;;;;;;18.06;53.25;98024.56;67928;1273;1016783;-68
2023/10/29 01:14:10;;;;;;;24.10;7.80;;;;;;;17.85;53.46;98027.48;67887;1273;1015965;-68
2023/10/29 01:17:12;;;;;;;25.70;7.30;;;;;;;17.84;53.60;98027.34;67734;1273;1016179;-68
2023/10/29 01:20:14;;;;;;;26.60;7.50;;;;;;;17.74;53.82;98032.48;67875;1273;1019806;-68
2023/10/29 01:23:17;;;;;;;25.00;6.70;;;;;;;17.65;53.97;98030.55;67964;1273;1016374;-68
2023/10/29 01:26:20;;;;;;;24.40;7.40;;;;;;;17.45;54.30;98031.17;67924;1273;1016480;-67
2023/10/29 01:29:22;;;;;;;24.80;6.90;;;;;;;17.51;54.32;98031.50;67902;1273;1017093;-67
2023/10/29 01:32:25;;;;;;;25.20;7.40;;;;;;;17.84;53.42;98032.30;67872;1273;1016416;-68
2023/10/29 01:35:27;;;;;;;23.90;7.10;;;;;;;17.70;53.62;98030.45;67903;1273;1016433;-67
2023/10/29 01:38:29;;;;;;;23.00;7.00;;;;;;;17.54;54.19;98031.19;67906;1273;1016620;-67
2023/10/29 01:41:32;;;;;;;21.80;6.30;;;;;;;17.35;54.81;98032.15;67934;1273;1016112;-67
2023/10/29 01:44:34;;;;;;;22.70;6.40;;;;;;;17.43;54.67;98040.02;67835;1273;1016416;-66
2023/10/29 01:47:36;;;;;;;21.60;7.30;;;;;;;17.56;54.51;98041.94;67871;1273;1016432;-66
2023/10/29 01:50:39;;;;;;;25.10;7.30;;;;;;;17.67;54.19;98041.08;67867;1273;1016475;-68
2023/10/29 01:53:41;;;;;;;22.20;6.20;;;;;;;17.84;53.73;98041.87;67927;1273;1016247;-67
2023/10/29 01:56:44;;;;;;;21.60;6.00;;;;;;;17.54;54.41;98044.28;67932;1273;1016395;-67
2023/10/29 01:59:46;;;;;;;21.60;6.50;;;;;;;17.58;54.42;98045.41;67910;1273;1016212;-68
2023/10/29 02:02:50;;;;;;;23.60;6.70;;;;;;;17.81;53.79;98041.45;67930;1273;1016181;-68
2023/10/29 02:05:52;;;;;;;22.20;6.40;;;;;;;17.68;54.02;98045.10;67854;1273;1016336;-68
2023/10/29 02:08:54;;;;;;;26.20;7.70;;;;;;;17.64;54.12;98045.90;67886;1273;1016439;-68
2023/10/29 02:11:57;;;;;;;24.00;6.40;;;;;;;17.71;53.91;98048.89;67886;1273;1016429;-68
2023/10/29 02:14:59;;;;;;;22.40;7.40;;;;;;;17.64;53.98;98046.27;67895;1273;1016970;-67
2023/10/29 02:18:01;;;;;;;20.90;5.80;;;;;;;17.53;54.18;98042.55;67922;1273;1016899;-68
2023/10/29 02:21:04;;;;;;;21.10;6.40;;;;;;;17.66;54.00;98044.58;67927;1273;1016151;-68
2023/10/29 02:24:06;;;;;;;22.00;6.60;;;;;;;17.68;54.12;98046.71;67882;1273;1016229;-68
2023/10/29 02:27:09;;;;;;;21.50;5.90;;;;;;;17.62;54.20;98046.91;67887;1273;1016211;-68
2023/10/29 02:30:12;;;;;;;25.60;6.60;;;;;;;17.72;54.22;98049.16;67857;1273;1016496;-68
2023/10/29 02:33:14;;;;;;;25.00;6.10;;;;;;;17.85;53.86;98046.33;67886;1273;1016103;-68
2023/10/29 02:36:17;;;;;;;24.30;6.30;;;;;;;17.83;53.81;98048.91;67873;1273;1016058;-66
2023/10/29 02:39:19;;;;;;;19.80;5.70;;;;;;;17.88;53.70;98049.48;67844;1273;1016170;-67
2023/10/29 02:42:21;;;;;;;22.80;5.90;;;;;;;17.93;53.54;98046.27;67913;1273;1016371;-67
2023/10/29 02:45:24;;;;;;;21.10;5.80;;;;;;;17.96;53.51;98048.92;67890;1273;1019161;-69
2023/10/29 02:48:26;;;;;;;18.20;5.40;;;;;;;18.07;53.31;98050.64;67889;1273;1016154;-68
2023/10/29 02:51:29;;;;;;;21.00;5.60;;;;;;;18.06;53.20;98044.73;67893;1273;1016462;-68
2023/10/29 02:54:31;;;;;;;22.70;5.50;;;;;;;18.05;53.47;98040.30;67886;1273;1016389;-68
2023/10/29 02:57:33;;;;;;;22.00;6.00;;;;;;;18.09;53.36;98039.20;67913;1273;1016180;-68
2023/10/29 03:00:36;;;;;;;20.50;5.00;;;;;;;18.05;53.50;98043.30;67938;1273;1016623;-67
2023/10/29 03:03:38;;;;;;;19.10;4.90;;;;;;;18.08;53.37;98044.04;67891;1273;1016731;-67
2023/10/29 03:06:41;;;;;;;17.30;4.40;;;;;;;18.08;53.45;98049.22;67869;1273;1016268;-67
2023/10/29 03:09:44;;;;;;;17.70;4.50;;;;;;;18.08;53.54;98052.52;67923;1273;1016417;-66
2023/10/29 03:12:46;;;;;;;15.90;4.10;;;;;;;18.06;53.55;98047.91;67930;1273;1016434;-68
2023/10/29 03:15:49;;;;;;;20.70;4.40;;;;;;;18.02;53.50;98049.13;67903;1273;1016403;-68
2023/10/29 03:18:51;;;;;;;14.60;3.90;;;;;;;18.11;53.38;98049.69;67925;1273;1016298;-68
2023/10/29 03:21:53;;;;;;;16.30;3.90;;;;;;;18.06;53.28;98055.77;67895;1273;1016298;-68
2023/10/29 03:24:56;;;;;;;15.70;4.20;;;;;;;18.06;53.26;98055.93;67914;1273;1016736;-68
2023/10/29 03:27:58;;;;;;;19.10;4.10;;;;;;;18.00;52.91;98057.05;67927;1273;1016415;-67
2023/10/29 03:31:00;;;;;;;19.30;4.70;;;;;;;17.80;53.13;98062.92;67939;1273;1016458;-65
2023/10/29 03:34:03;;;;;;;20.10;4.50;;;;;;;17.66;53.40;98065.97;67844;1273;1016081;-68
2023/10/29 03:37:05;;;;;;;18.50;4.70;;;;;;;17.61;53.41;98068.49;67895;1273;1016446;-68
2023/10/29 03:40:08;;;;;;;21.10;5.10;;;;;;;17.50;53.41;98071.67;67912;1273;1016419;-64
2023/10/29 03:43:10;;;;;;;19.60;4.70;;;;;;;17.47;53.37;98075.83;67924;1273;1016464;-68
2023/10/29 03:46:13;;;;;;;21.90;5.10;;;;;;;17.53;53.27;98075.63;67893;1273;1016305;-65
2023/10/29 03:49:16;;;;;;;21.70;5.80;;;;;;;17.48;53.29;98074.55;67909;1273;1016262;-67
2023/10/29 03:52:19;;;;;;;24.70;6.00;;;;;;;17.41;53.51;98075.10;67925;1273;1016365;-68
2023/10/29 03:55:21;;;;;;;22.60;5.80;;;;;;;17.39;53.55;98076.01;67890;1273;1016273;-68
2023/10/29 03:58:24;;;;;;;25.50;6.60;;;;;;;17.35;53.73;98079.16;67897;1273;1017517;-67
2023/10/29 04:01:26;;;;;;;21.90;5.70;;;;;;;17.20;53.95;98075.80;67882;1273;1016049;-68
2023/10/29 04:04:29;;;;;;;;;;;;;;;17.19;53.91;98075.52;67928;1273;1016457;-68
2023/10/29 04:07:31;;;;;;;;;;;;;;;17.18;53.83;98078.54;67887;1273;1016166;-68
2023/10/29 04:10:34;;;;;;;24.40;6.20;;;;;;;17.11;53.93;98075.00;67902;1273;1016339;-66
2023/10/29 04:13:36;;;;;;;21.80;5.80;;;;;;;17.12;53.81;98078.13;67905;1273;1015938;-68
2023/10/29 04:16:39;;;;;;;19.10;5.40;;;;;;;17.08;53.57;98076.60;67929;1273;1016498;-69
2023/10/29 04:19:42;;;;;;;22.90;5.70;;;;;;;16.92;53.94;98078.11;67892;1273;1016800;-68
2023/10/29 04:22:44;;;;;;;27.30;6.00;;;;;;;16.90;54.08;98076.43;67906;1273;1018109;-68
2023/10/29 04:25:46;;;;;;;23.20;7.00;;;;;;;17.02;53.87;98073.66;67897;1273;1016417;-68
2023/10/29 04:28:49;;;;;;;23.10;6.50;;;;;;;17.02;53.94;98077.94;67913;1273;1016620;-68
2023/10/29 04:31:51;;;;;;;23.00;5.90;;;;;;;16.94;53.85;98081.48;67922;1273;1017148;-68
2023/10/29 04:34:54;;;;;;;23.10;5.30;;;;;;;16.89;54.04;98081.45;67888;1273;1015726;-68
2023/10/29 04:37:57;;;;;;;21.60;5.50;;;;;;;16.86;53.86;98076.46;67887;1273;1016257;-68
2023/10/29 04:40:59;;;;;;;19.70;5.10;;;;;;;16.76;53.79;98081.06;67942;1273;1015852;-68
2023/10/29 04:44:02;;;;;;;22.20;6.10;;;;;;;16.71;53.98;98076.69;67906;1273;1015965;-68
2023/10/29 04:47:05;;;;;;;22.80;6.40;;;;;;;16.68;54.38;98077.70;67940;1273;1016153;-68
2023/10/29 04:50:07;;;;;;;23.40;6.00;;;;;;;16.86;54.51;98076.66;67918;1273;1016300;-69
2023/10/29 04:53:10;;;;;;;23.30;6.90;;;;;;;17.02;54.08;98081.09;67870;1273;1016419;-68
2023/10/29 04:56:12;;;;;;;21.00;6.30;;;;;;;17.18;53.97;98081.98;67893;1273;1018757;-68
2023/10/29 04:59:14;;;;;;;24.20;6.30;;;;;;;17.25;54.18;98078.77;67907;1273;1017106;-68
2023/10/29 05:02:17;;;;;;;23.00;6.30;;;;;;;17.41;53.93;98076.09;67948;1273;1017959;-68
2023/10/29 05:05:19;;;;;;;23.80;6.20;;;;;;;17.51;53.70;98075.52;67920;1273;1016419;-68
2023/10/29 05:08:22;;;;;;;23.50;6.70;;;;;;;17.53;53.69;98076.27;67877;1273;1016722;-68
2023/10/29 05:11:24;;;;;;;24.60;6.80;;;;;;;17.67;53.48;98076.12;67892;1273;1016349;-68
2023/10/29 05:14:27;;;;;;;20.80;6.30;;;;;;;17.76;53.21;98078.24;67926;1273;1016434;-67
2023/10/29 05:17:30;;;;;;;24.30;7.30;;;;;;;17.68;53.41;98080.80;67942;1273;1015600;-68
2023/10/29 05:20:32;;;;;;;23.70;7.50;;;;;;;17.77;53.24;98082.56;67861;1273;1016116;-68
2023/10/29 05:23:34;;;;;;;23.70;7.20;;;;;;;17.78;53.10;98079.75;67902;1273;1016326;-68
2023/10/29 05:26:37;;;;;;;;;;;;;;;17.81;53.15;98077.02;67899;1273;1016391;-68
2023/10/29 05:29:40;;;;;;;24.20;5.90;;;;;;;17.82;53.13;98076.23;67926;1273;1016421;-66
2023/10/29 05:32:43;;;;;;;21.50;5.90;;;;;;;17.81;53.08;98080.59;67896;1273;1016440;-68
2023/10/29 05:35:46;;;;;;;20.40;5.60;;;;;;;17.82;53.07;98082.61;67891;1273;1017315;-66
2023/10/29 05:38:48;;;;;;;;;;;;;;;17.77;52.96;98085.93;67866;1273;1016277;-67
2023/10/29 05:41:51;;;;;;;19.40;4.90;;;;;;;17.70;52.98;98085.58;67899;1273;1018172;-68
2023/10/29 05:44:53;;;;;;;20.20;5.20;;;;;;;17.61;53.47;98093.71;67886;1273;1016531;-67
2023/10/29 05:47:56;;;;;;;17.90;4.60;;;;;;;17.73;53.38;98098.23;67921;1273;1016464;-67
2023/10/29 05:50:59;;;;;;;21.60;5.60;;;;;;;17.62;53.66;98109.30;67901;1273;1016365;-65
2023/10/29 05:54:01;;;;;;;26.30;7.20;;;;;;;17.67;53.86;98105.52;67925;1273;1016419;-68
2023/10/29 05:57:03;;;;;;;21.30;5.90;;;;;;;17.72;53.77;98103.62;67937;1273;1016460;-67
2023/10/29 06:00:06;;;;;;;21.90;5.80;;;;;;;17.62;53.86;98101.77;67957;1273;1016452;-68
2023/10/29 06:03:09;;;;;;;19.20;5.90;;;;;;;17.82;53.24;98100.23;67915;1273;1016383;-68
2023/10/29 06:06:12;;;;;;;23.30;5.50;;;;;;;17.87;53.13;98105.77;67903;1273;1016159;-68
2023/10/29 06:09:14;;;;;;;22.70;6.60;;;;;;;17.95;53.04;98115.09;67878;1273;1016373;-67
2023/10/29 06:12:18;;;;;;;20.50;6.10;;;;;;;18.06;52.90;98124.39;67893;1273;1019621;-68
2023/10/29 06:15:20;;;;;;;21.40;5.60;;;;;;;18.21;52.60;98131.16;67871;1273;1016383;-67
2023/10/29 06:18:23;;;;;;;20.20;5.20;;;;;;;18.08;52.68;98138.89;67825;1273;1018776;-67
2023/10/29 06:21:25;;;;;;;19.30;4.90;;;;;;;18.01;53.03;98149.84;67916;1273;1016454;-67
2023/10/29 06:24:28;;;;;;;21.20;5.40;;;;;;;18.09;52.94;98153.13;67929;1273;1016268;-68
2023/10/29 06:27:30;;;;;;;20.90;5.30;;;;;;;18.12;52.87;98158.98;67944;1273;1016751;-68
2023/10/29 06:30:33;;;;;;;21.80;5.50;;;;;;;18.24;52.27;98156.33;67863;1273;1016425;-68
2023/10/29 06:33:35;;;;;;;22.60;5.90;;;;;;;18.24;52.31;98158.31;67903;1273;1016787;-67
2023/10/29 06:36:38;;;;;;;20.10;4.80;;;;;;;18.32;52.06;98167.84;67873;1273;1016353;-68
2023/10/29 06:39:41;;;;;;;18.10;4.00;;;;;;;18.29;52.03;98167.45;67875;1273;1016444;-69
2023/10/29 06:42:43;;;;;;;18.90;4.60;;;;;;;18.18;51.96;98162.23;67879;1273;1015837;-69
2023/10/29 06:45:45;;;;;;;17.60;4.30;;;;;;;18.33;51.93;98154.64;67888;1273;1017077;-68
2023/10/29 06:48:48;;;;;;;18.20;4.60;;;;;;;18.45;51.91;98155.42;67929;1273;1016463;-68
2023/10/29 06:51:50;;;;;;;16.50;4.10;;;;;;;18.59;51.98;98154.97;67915;1273;1016412;-68
2023/10/29 06:54:53;;;;;;;19.10;4.10;;;;;;;18.67;51.83;98150.59;67899;1273;1016288;-67
2023/10/29 06:57:55;;;;;;;15.50;4.10;;;;;;;18.85;51.86;98154.92;67908;1273;1016250;-68
2023/10/29 07:00:58;;;;;;;14.00;3.60;;;;;;;19.02;51.40;98149.91;67948;1273;1016342;-67
2023/10/29 07:04:00;;;;;;;15.70;3.80;;;;;;;19.13;51.54;98147.57;67911;1273;1016440;-68
2023/10/29 07:07:03;;;;;;;15.50;4.00;;;;;;;19.35;51.43;98143.40;67886;1273;1016276;-67
2023/10/29 07:10:05;;;;;;;15.40;3.90;;;;;;;19.69;50.78;98132.84;67917;1273;1016432;-68
2023/10/29 07:13:09;;;;;;;15.70;3.70;;;;;;;19.90;50.40;98126.59;67901;1273;1016319;-68
2023/10/29 07:16:12;;;;;;;17.50;5.10;;;;;;;19.97;50.14;98122.12;67870;1273;1016316;-68
2023/10/29 07:19:16;;;;;;;21.10;6.40;;;;;;;20.12;50.06;98120.88;67891;1273;1016422;-67
2023/10/29 07:22:19;;;;;;;23.10;7.20;;;;;;;20.32;50.02;98112.92;67895;1273;1015965;-64
2023/10/29 07:25:21;;;;;;;15.80;4.70;;;;;;;20.54;49.75;98113.31;67891;1273;1016438;-68
2023/10/29 07:28:24;;;;;;;23.10;7.40;;;;;;;20.77;49.61;98113.57;67919;1273;1016461;-68
2023/10/29 07:31:26;;;;;;;18.60;5.60;;;;;;;20.99;49.22;98113.86;67913;1273;1017382;-68
2023/10/29 07:34:28;;;;;;;13.30;3.20;;;;;;;20.99;48.70;98116.73;67947;1273;1016137;-68
2023/10/29 07:37:31;;;;;;;20.40;5.60;;;;;;;21.16;48.14;98115.30;67943;1273;1016432;-69
2023/10/29 07:40:35;;;;;;;16.20;3.90;;;;;;;21.37;48.11;98110.95;67912;1273;1015961;-68
2023/10/29 07:43:38;;;;;;;19.50;4.80;;;;;;;21.42;48.10;98116.56;67877;1273;1016450;-68
2023/10/29 07:46:40;;;;;;;16.10;3.70;;;;;;;21.52;47.96;98114.48;67891;1273;1016487;-69
2023/10/29 07:49:43;;;;;;;16.10;4.10;;;;;;;21.58;47.76;98114.36;67904;1273;1016154;-68
2023/10/29 07:52:45;;;;;;;13.80;3.80;;;;;;;21.82;47.64;98118.84;67953;1273;1016001;-68
2023/10/29 07:55:48;;;;;;;18.30;4.00;;;;;;;22.01;47.51;98118.33;67925;1273;1016401;-68
2023/10/29 07:58:51;;;;;;;14.90;3.60;;;;;;;22.12;47.14;98119.17;67910;1273;1016242;-68
2023/10/29 08:01:54;;;;;;;12.60;3.50;;;;;;;22.20;47.01;98126.21;67865;1273;1016419;-68
2023/10/29 08:04:56;;;;;;;15.40;4.00;;;;;;;22.09;47.44;98132.14;67884;1273;1016539;-68
2023/10/29 08:08:01;;;;;;;16.30;3.90;;;;;;;22.18;47.18;98132.81;67958;1273;1016431;-68
2023/10/29 08:11:03;;;;;;;13.10;3.40;;;;;;;22.10;47.23;98134.92;67932;1273;1017038;-68
2023/10/29 08:14:06;;;;;;;19.60;3.80;;;;;;;22.04;47.36;98141.87;67889;1273;1016104;-69
2023/10/29 08:17:08;;;;;;;13.30;3.50;;;;;;;22.14;46.96;98135.80;67905;1273;1016466;-69
2023/10/29 08:20:11;;;;;;;13.90;3.20;;;;;;;22.19;46.93;98135.73;67898;1273;1016414;-64
2023/10/29 08:23:14;;;;;;;10.90;2.70;;;;;;;22.26;46.79;98131.86;67970;1273;1016088;-69
2023/10/29 08:26:16;;;;;;;13.90;3.30;;;;;;;22.58;46.71;98130.02;67897;1273;1016473;-69
2023/10/29 08:29:18;;;;;;;15.40;3.40;;;;;;;22.94;46.62;98122.08;67915;1273;1016412;-68
2023/10/29 08:32:21;;;;;;;11.90;3.20;;;;;;;23.25;45.49;98118.68;67866;1273;1016402;-68
2023/10/29 08:35:23;;;;;;;12.60;3.20;;;;;;;23.27;45.76;98130.34;67867;1273;1016470;-67
2023/10/29 08:38:25;;;;;;;13.60;3.10;;;;;;;23.53;45.53;98129.23;67926;1273;1016227;-67
2023/10/29 08:41:28;;;;;;;11.90;3.00;;;;;;;23.72;45.09;98132.52;67919;1273;1016415;-69
2023/10/29 08:44:30;;;;;;;;;;;;;;;23.99;44.66;98133.48;67935;1273;1018555;-68
2023/10/29 08:47:33;;;;;;;12.20;3.20;;;;;;;24.21;44.59;98131.11;67858;1273;1017898;-67
2023/10/29 08:50:36;;;;;;;;;;;;;;;24.20;43.65;98125.27;67923;1273;1016058;-67
2023/10/29 08:53:38;;;;;;;12.20;3.10;;;;;;;23.91;44.00;98130.98;67886;1273;1016429;-68
2023/10/29 08:56:41;;;;;;;13.20;3.50;;;;;;;23.78;44.08;98134.27;67893;1273;1015897;-68
2023/10/29 08:59:43;;;;;;;14.50;3.70;;;;;;;23.95;44.48;98141.56;67868;1273;1016537;-68
2023/10/29 09:02:46;;;;;;;;;;;;;;;24.31;44.37;98133.42;67939;1273;1016054;-69
2023/10/29 09:05:48;;;;;;;14.70;3.60;;;;;;;24.42;43.53;98138.23;67939;1273;1016586;-68
2023/10/29 09:08:51;;;;;;;10.30;2.40;;;;;;;24.36;43.25;98133.84;67870;1273;1016215;-66
2023/10/29 09:11:56;;;;;;;9.10;2.70;;;;;;;24.45;43.02;98141.17;67907;1273;1016446;-69
2023/10/29 09:14:59;;;;;;;9.80;2.50;;;;;;;24.42;42.78;98128.96;67900;1273;1016425;-68
2023/10/29 09:18:01;;;;;;;9.20;2.60;;;;;;;24.43;42.30;98117.28;67875;1273;1016245;-64
2023/10/29 09:21:04;;;;;;;10.00;2.40;;;;;;;24.40;42.49;98113.65;67877;1256;1016322;-68
2023/10/29 09:24:07;;;;;;;8.80;2.40;;;;;;;24.59;42.60;98112.89;67886;1273;1016274;-68
2023/10/29 09:27:09;;;;;;;7.90;2.30;;;;;;;24.61;42.18;98113.90;67889;1273;1016387;-69
2023/10/29 09:30:12;;;;;;;9.70;2.40;;;;;;;24.65;42.12;98114.09;67927;1273;1018942;-67
2023/10/29 09:33:15;;;;;;;;;;;;;;;24.78;42.22;98117.59;67921;1273;1016000;-68
2023/10/29 09:36:18;;;;;;;13.90;2.80;;;;;;;24.84;42.05;98116.21;67922;1273;1016692;-68
2023/10/29 09:39:21;;;;;;;14.30;2.80;;;;;;;24.91;42.00;98113.75;67896;1273;1016800;-68
2023/10/29 09:42:24;;;;;;;14.00;2.40;;;;;;;24.87;42.19;98109.04;67895;1273;1016016;-66
2023/10/29 09:45:26;;;;;;;11.20;2.30;;;;;;;25.18;42.18;98110.40;67936;1273;1017369;-68
2023/10/29 09:48:29;;;;;;;11.20;2.30;;;;;;;25.09;41.73;98115.55;67870;1273;1016443;-68
2023/10/29 09:51:32;;;;;;;12.40;2.80;;;;;;;25.10;41.53;98114.48;67883;1273;1016284;-68
2023/10/29 09:54:35;;;;;;;10.40;2.60;;;;;;;25.23;41.92;98109.41;67912;1273;1016122;-68
2023/10/29 09:57:37;;;;;;;10.30;2.70;;;;;;;25.39;41.28;98106.80;67900;1273;1016380;-67
2023/10/29 10:00:40;;;;;;;9.40;2.60;;;;;;;25.50;41.05;98102.10;67855;1273;1016786;-65
2023/10/29 10:03:42;;;;;;;11.60;2.50;;;;;;;25.60;41.11;98093.50;67937;1273;1016304;-68
2023/10/29 10:06:45;;;;;;;11.90;2.50;;;;;;;25.71;41.18;98087.09;67943;1273;1016449;-65
2023/10/29 10:09:47;;;;;;;10.30;2.20;;;;;;;25.84;40.57;98083.27;67902;1273;1018505;-69
2023/10/29 10:12:49;;;;;;;;;;;;;;;25.85;40.07;98076.59;67855;1273;1016489;-68
2023/10/29 10:15:52;;;;;;;9.50;2.30;;;;;;;25.91;40.46;98072.77;67838;1273;1016354;-68
2023/10/29 10:18:54;;;;;;;;;;;;;;;25.97;40.63;98065.29;67942;1273;1016391;-68
2023/10/29 10:21:57;;;;;;;;;;;;;;;26.21;40.19;98059.36;67903;1273;1016424;-70
2023/10/29 10:24:59;;;;;;;10.10;2.20;;;;;;;26.26;39.62;98049.21;67909;1273;1016092;-69
2023/10/29 10:28:02;;;;;;;10.70;2.70;;;;;;;26.30;39.97;98046.50;67873;1273;1016271;-66
2023/10/29 10:31:04;;;;;;;9.60;2.30;;;;;;;26.48;39.66;98046.53;67913;1273;1016214;-68
2023/10/29 10:34:07;;;;;;;;;;;;;;;26.59;40.04;98043.61;67961;1273;1018194;-69
2023/10/29 10:37:09;;;;;;;8.40;2.40;;;;;;;26.67;39.55;98049.84;67927;1273;1016436;-68
2023/10/29 10:40:11;;;;;;;;;;;;;;;26.77;38.98;98054.05;67903;1273;1016393;-68
2023/10/29 10:43:14;;;;;;;9.90;2.60;;;;;;;26.78;39.25;98052.77;67892;1273;1016390;-68
2023/10/29 10:46:16;;;;;;;11.90;2.50;;;;;;;26.75;39.15;98047.08;67913;1273;1019281;-68
2023/10/29 10:49:19;;;;;;;9.30;2.60;;;;;;;26.83;39.03;98043.96;67957;1273;1016156;-68
2023/10/29 10:52:21;;;;;;;9.70;2.70;;;;;;;27.00;38.78;98045.16;67947;1273;1015840;-66
2023/10/29 10:55:23;;;;;;;9.30;2.30;;;;;;;26.95;39.05;98042.58;67918;1273;1016861;-66
2023/10/29 10:58:26;;;;;;;9.80;2.60;;;;;;;26.93;38.53;98041.08;67889;1273;1016407;-68
2023/10/29 11:01:28;;;;;;;10.70;2.70;;;;;;;26.82;38.62;98038.06;67848;1273;1016294;-66
2023/10/29 11:04:30;;;;;;;11.00;2.30;;;;;;;26.54;39.10;98031.29;67909;1273;1016605;-68
2023/10/29 11:07:33;;;;;;;8.80;2.40;;;;;;;26.67;38.86;98034.20;67897;1273;1016481;-69
2023/10/29 11:10:36;;;;;;;11.00;2.50;;;;;;;26.58;39.04;98037.55;67862;1273;1017944;-68
2023/10/29 11:13:38;;;;;;;10.70;2.50;;;;;;;26.60;38.94;98037.41;67889;1273;1016364;-68
2023/10/29 11:16:41;;;;;;;9.60;2.50;;;;;;;26.66;38.93;98037.05;67928;1273;1016357;-68
2023/10/29 11:19:44;;;;;;;13.30;3.00;;;;;;;26.81;38.42;98036.02;67929;1273;1016042;-68
2023/10/29 11:22:46;;;;;;;15.70;3.00;;;;;;;26.76;38.31;98034.16;67922;1273;1016255;-68
2023/10/29 11:25:49;;;;;;;12.20;2.80;;;;;;;26.83;38.41;98029.85;67903;1273;1016788;-68
2023/10/29 11:28:52;;;;;;;9.70;2.50;;;;;;;26.89;38.70;98027.41;67918;1273;1016527;-66
2023/10/29 11:31:55;;;;;;;13.20;2.60;;;;;;;27.01;38.58;98029.80;67848;1273;1016586;-68
2023/10/29 11:34:57;;;;;;;14.80;3.70;;;;;;;27.02;38.44;98029.08;67916;1273;1016390;-68
2023/10/29 11:38:00;;;;;;;14.20;3.50;;;;;;;27.20;38.09;98021.73;67924;1273;1018524;-68
2023/10/29 11:41:02;;;;;;;13.40;2.40;;;;;;;27.03;37.84;98023.20;67892;1273;1016410;-68
2023/10/29 11:44:05;;;;;;;14.20;3.30;;;;;;;26.96;38.02;98021.67;67875;1273;1016429;-68
2023/10/29 11:47:08;;;;;;;12.60;3.20;;;;;;;26.98;38.06;98023.41;67939;1273;1016565;-69
2023/10/29 11:50:10;;;;;;;13.60;3.00;;;;;;;27.00;38.26;98023.06;67897;1273;1016318;-68
2023/10/29 11:53:12;;;;;;;9.20;2.50;;;;;;;26.99;38.35;98017.95;67880;1273;1016411;-68
2023/10/29 11:56:15;;;;;;;11.30;2.70;;;;;;;27.28;38.27;98012.68;67920;1273;1018153;-68
2023/10/29 11:59:17;;;;;;;11.90;2.80;;;;;;;27.52;37.92;98002.02;67925;1273;1015726;-67
2023/10/29 12:02:20;;;;;;;13.10;2.70;;;;;;;27.74;38.17;97987.58;67908;1273;1016435;-68
2023/10/29 12:05:22;;;;;;;11.10;2.60;;;;;;;28.17;37.85;97981.98;67899;1273;1016371;-66
2023/10/29 12:08:24;;;;;;;6.80;2.40;;;;;;;28.26;37.88;97980.44;67898;1273;1016576;-66
2023/10/29 12:11:27;;;;;;;8.70;2.40;;;;;;;28.26;37.02;97976.14;67887;1273;1018312;-66
2023/10/29 12:14:29;;;;;;;13.00;2.80;;;;;;;28.01;37.15;97978.70;67913;1273;1016174;-69
2023/10/29 12:17:32;;;;;;;11.70;2.50;;;;;;;27.71;36.84;97981.76;67929;1273;1016364;-66
2023/10/29 12:20:34;;;;;;;8.80;2.40;;;;;;;27.49;37.37;97971.95;67956;1273;1016397;-69
2023/10/29 12:23:37;;;;;;;7.30;2.00;;;;;;;27.44;37.31;97971.25;67870;1273;1016420;-68
2023/10/29 12:26:40;;;;;;;12.10;2.60;;;;;;;27.50;37.66;97970.48;67882;1273;1016427;-66
2023/10/29 12:29:43;;;;;;;12.40;2.80;;;;;;;27.71;37.58;97966.48;67926;1273;1016441;-66
2023/10/29 12:32:45;;;;;;;10.00;2.20;;;;;;;27.74;37.49;97963.71;67904;1273;1019289;-64
2023/10/29 12:35:48;;;;;;;11.80;2.30;;;;;;;27.85;37.13;97961.63;67882;1273;1016434;-66
2023/10/29 12:38:51;;;;;;;9.00;2.40;;;;;;;27.72;37.09;97964.20;67755;1273;1016893;-64
2023/10/29 12:41:53;;;;;;;11.20;2.90;;;;;;;27.51;36.96;97962.31;67741;1273;1018941;-63
2023/10/29 12:44:56;;;;;;;9.70;2.60;;;;;;;27.22;37.21;97962.83;67825;1273;1016450;-66
2023/10/29 12:47:58;;;;;;;12.60;2.70;;;;;;;27.07;37.36;97959.41;67813;1273;1015918;-64
2023/10/29 12:51:02;;;;;;;12.90;2.70;;;;;;;26.92;37.82;97961.08;67883;1273;1019951;-66
2023/10/29 12:54:04;;;;;;;11.10;2.50;;;;;;;26.91;37.48;97961.09;67748;1273;1016421;-64
2023/10/29 12:57:12;;;;;;;11.50;2.60;;;;;;;27.06;37.60;97955.82;67802;1273;1016099;-64
2023/10/29 13:00:14;;;;;;;12.60;2.50;;;;;;;26.95;37.90;97949.46;68676;1273;1015939;-65
2023/10/29 13:03:17;;;;;;;10.50;2.70;;;;;;;27.09;37.52;97954.05;67830;1273;1016410;-65
2023/10/29 13:06:21;;;;;;;8.80;2.10;;;;;;;27.10;37.66;97957.39;67873;1273;1016672;-65
2023/10/29 13:09:25;;;;;;;9.90;2.60;;;;;;;26.92;37.29;97960.91;67929;1273;1016400;-65
2023/10/29 13:12:27;;;;;;;12.60;2.30;;;;;;;26.97;37.45;97966.29;67909;1273;1018307;-66
2023/10/29 13:15:30;;;;;;;8.70;2.60;;;;;;;26.91;37.41;97963.73;67926;1251;1016427;-65
2023/10/29 13:18:33;;;;;;;13.90;3.00;;;;;;;26.85;37.23;97969.28;67659;1273;1306121;-65
2023/10/29 13:21:36;;;;;;;10.20;2.70;;;;;;;26.75;37.37;97968.34;67824;1251;1015815;-65
2023/10/29 13:24:38;;;;;;;12.80;2.50;;;;;;;26.58;37.45;97968.34;67884;1273;1016378;-65
2023/10/29 13:27:40;;;;;;;12.70;2.40;;;;;;;26.49;37.86;97959.96;67911;1273;1016383;-65
2023/10/29 13:30:43;;;;;;;15.40;3.90;;;;;;;26.50;37.83;97955.65;67919;1273;1016426;-65
2023/10/29 13:33:47;;;;;;;23.80;7.10;;;;;;;26.49;37.77;97950.98;67879;1273;1018722;-65
2023/10/29 13:36:50;;;;;;;19.20;5.30;;;;;;;26.35;37.89;97954.22;67897;1273;1016298;-66
2023/10/29 13:39:52;;;;;;;14.20;3.10;;;;;;;26.17;38.11;97954.58;67926;1273;1016447;-66
2023/10/29 13:42:55;;;;;;;16.00;3.80;;;;;;;26.03;38.24;97957.09;67932;1273;1017459;-65
2023/10/29 13:45:57;;;;;;;15.30;3.40;;;;;;;26.00;38.55;97960.73;67871;1273;1016023;-66
2023/10/29 13:49:00;;;;;;;15.40;3.30;;;;;;;25.90;38.53;97958.65;67866;1273;1016327;-65
2023/10/29 13:52:02;;;;;;;24.70;6.50;;;;;;;25.61;38.76;97956.40;67930;1273;1016281;-66
2023/10/29 13:55:05;;;;;;;17.00;3.50;;;;;;;25.25;39.20;97955.35;67920;1273;1016428;-65